Time;durP1;ratioP1;P1;durP2;ratioP2;P2;SDS_P1;SDS_P2;PMS_P1;PMS_P2;Temp;Humidity;BMP_temperature;BMP_pressure;BME280_temperature;BME280_humidity;BME280_pressure;Samples;Min_cycle;Max_cycle;Signal;HPM_P1;HPM_P2
2022/05/11 18:04:52;;;;;;;6.90;5.50;;;;;;;24.30;37.11;99840.02;103238;1307;546652;-80
2022/05/11 18:07:19;;;;;;;13.50;6.00;;;;;;;24.24;37.16;99840.67;105632;1284;22552;-77
2022/05/11 18:09:51;;;;;;;11.20;5.50;;;;;;;24.20;37.37;99840.05;105439;1282;25253;-78
2022/05/11 18:12:21;;;;;;;13.50;5.40;;;;;;;24.14;37.43;99842.27;105488;1284;25325;-76
2022/05/11 18:14:52;;;;;;;8.80;5.20;;;;;;;24.10;37.55;99840.92;105939;1284;24296;-80
2022/05/11 18:17:19;;;;;;;11.30;5.30;;;;;;;24.04;37.50;99840.14;105186;1281;490580;-81
2022/05/11 18:19:46;;;;;;;11.00;6.10;;;;;;;23.97;37.76;99840.82;105382;1281;25657;-80
2022/05/11 18:22:14;;;;;;;9.70;6.20;;;;;;;23.90;37.92;99840.59;105480;1281;22544;-81
2022/05/11 18:24:41;;;;;;;13.20;6.50;;;;;;;23.88;38.24;99845.27;105623;1281;22722;-80
2022/05/11 18:27:08;;;;;;;12.00;6.20;;;;;;;23.82;38.32;99843.39;105685;1281;22579;-80
2022/05/11 18:29:36;;;;;;;12.00;6.30;;;;;;;23.74;38.44;99842.48;104911;1287;24716;-76
2022/05/11 18:32:08;;;;;;;17.60;7.00;;;;;;;23.67;38.82;99841.36;105645;1287;23414;-77
2022/05/11 18:34:36;;;;;;;11.90;6.40;;;;;;;23.62;38.93;99843.15;104240;1295;22660;-80
2022/05/11 18:37:05;;;;;;;14.40;6.50;;;;;;;23.56;39.06;99843.08;104759;1292;25256;-83
2022/05/11 18:39:34;;;;;;;13.70;6.50;;;;;;;23.51;39.17;99839.48;105478;1295;22638;-83
2022/05/11 18:42:27;;;;;;;11.40;6.20;;;;;;;23.47;39.35;99837.98;105237;1292;23029;-86
2022/05/11 18:45:41;;;;;;;14.20;7.30;;;;;;;23.41;39.77;99839.14;105222;1292;23984;-88
2022/05/11 18:48:34;;;;;;;20.70;7.90;;;;;;;23.35;39.78;99840.61;106317;1276;22658;-84
2022/05/11 18:55:11;;;;;;;14.90;7.20;;;;;;;23.22;40.37;99840.63;106758;1271;22540;-84
2022/05/11 18:57:41;;;;;;;14.60;7.50;;;;;;;23.14;40.34;99843.32;106605;1271;25261;-84
2022/05/11 19:00:35;;;;;;;20.40;7.30;;;;;;;23.08;40.53;99841.79;106694;1270;22853;-81
2022/05/11 19:03:10;;;;;;;19.40;6.60;;;;;;;22.99;40.77;99848.82;106822;1268;22714;-81
2022/05/11 19:05:40;;;;;;;13.50;5.80;;;;;;;22.94;40.80;99849.59;106695;1271;25354;-83
2022/05/11 19:08:10;;;;;;;13.90;6.50;;;;;;;22.85;40.96;99847.30;106321;1271;23186;-84
2022/05/11 19:10:41;;;;;;;12.30;6.50;;;;;;;22.80;40.98;99847.30;106478;1271;24107;-83
2022/05/11 19:13:08;;;;;;;13.00;7.40;;;;;;;22.75;41.29;99848.52;106753;1271;26490;-82
2022/05/11 19:15:35;;;;;;;13.30;6.40;;;;;;;22.71;41.22;99845.20;106233;1277;24287;-77
2022/05/11 19:18:02;;;;;;;14.60;6.90;;;;;;;22.69;41.43;99850.58;106201;1275;25207;-81
2022/05/11 19:20:32;;;;;;;13.30;7.10;;;;;;;22.63;41.50;99848.10;106022;1276;22769;-82
2022/05/11 19:23:08;;;;;;;12.70;6.60;;;;;;;22.58;41.68;99849.31;106236;1276;24256;-80
2022/05/11 19:25:35;;;;;;;11.90;6.70;;;;;;;22.52;41.71;99849.48;106191;1276;22623;-77
2022/05/11 19:28:02;;;;;;;8.30;6.90;;;;;;;22.47;41.80;99845.89;106192;1277;22531;-78
2022/05/11 19:30:32;;;;;;;11.70;6.70;;;;;;;22.44;41.82;99845.93;106280;1274;22574;-81
2022/05/11 19:32:59;;;;;;;11.20;6.30;;;;;;;22.38;41.84;99843.63;106521;1274;25612;-79
2022/05/11 19:35:27;;;;;;;9.10;6.30;;;;;;;22.35;41.98;99846.72;106330;1274;22543;-82
2022/05/11 19:37:54;;;;;;;11.60;6.70;;;;;;;22.30;42.28;99839.49;105971;1280;22764;-81
2022/05/11 19:40:23;;;;;;;9.50;6.60;;;;;;;22.25;42.30;99839.41;106288;1274;22539;-79
2022/05/11 19:42:50;;;;;;;11.50;5.90;;;;;;;22.22;42.41;99836.95;107340;1274;22243;-81
2022/05/11 19:45:18;;;;;;;14.90;6.90;;;;;;;22.16;42.45;99833.05;106489;1274;24252;-79
2022/05/11 19:47:46;;;;;;;12.30;6.60;;;;;;;22.09;42.76;99829.73;107312;1274;23931;-80
2022/05/11 19:50:15;;;;;;;9.60;5.60;;;;;;;22.04;42.86;99827.42;107076;1274;22673;-81
2022/05/11 19:52:45;;;;;;;7.40;5.90;;;;;;;21.98;43.15;99821.67;107193;1274;24451;-80
2022/05/11 19:55:15;;;;;;;10.70;6.40;;;;;;;21.93;43.17;99821.11;108049;1271;23567;-85
2022/05/11 19:57:46;;;;;;;11.20;5.60;;;;;;;21.90;43.27;99818.42;108960;1271;22868;-80
2022/05/11 20:00:18;;;;;;;10.90;6.50;;;;;;;21.87;43.38;99816.31;109015;1271;23112;-81
2022/05/11 20:02:45;;;;;;;8.80;6.50;;;;;;;21.85;43.46;99817.89;109320;1271;22467;-79
2022/05/11 20:05:16;;;;;;;10.90;5.60;;;;;;;21.83;43.54;99815.16;109288;1271;22544;-87
2022/05/11 20:07:44;;;;;;;12.50;5.50;;;;;;;21.80;43.57;99814.13;109026;1271;22548;-79
2022/05/11 20:10:15;;;;;;;9.40;6.10;;;;;;;21.76;43.58;99814.09;108097;1271;24092;-80
2022/05/11 20:12:44;;;;;;;6.80;5.80;;;;;;;21.76;43.59;99815.73;106637;1274;22640;-76
2022/05/11 20:15:14;;;;;;;8.10;5.90;;;;;;;21.72;43.76;99818.14;106556;1271;22875;-77
2022/05/11 20:17:42;;;;;;;8.40;5.80;;;;;;;21.69;43.78;99815.82;106366;1271;24787;-79
2022/05/11 20:20:10;;;;;;;10.60;5.80;;;;;;;21.66;43.84;99815.10;106537;1270;22826;-85
2022/05/11 20:22:37;;;;;;;13.60;7.10;;;;;;;21.63;43.96;99810.86;106370;1274;22531;-80
2022/05/11 20:25:05;;;;;;;7.20;5.70;;;;;;;21.59;44.07;99809.88;106022;1274;24212;-81
2022/05/11 20:27:35;;;;;;;12.10;7.10;;;;;;;21.51;44.14;99808.00;106181;1274;25333;-79
2022/05/11 20:30:06;;;;;;;12.60;6.40;;;;;;;21.46;44.21;99807.81;106103;1274;22743;-79
2022/05/11 20:35:19;;;;;;;9.10;5.80;;;;;;;21.36;44.46;99807.88;106079;1274;25407;-80
2022/05/11 20:37:47;;;;;;;7.40;5.90;;;;;;;21.33;44.42;99806.48;106115;1274;24130;-79
2022/05/11 20:40:17;;;;;;;10.80;6.10;;;;;;;21.29;44.40;99808.88;106080;1274;22480;-76
2022/05/11 20:42:46;;;;;;;9.20;5.90;;;;;;;21.25;44.53;99812.70;105518;1280;24059;-75
2022/05/11 20:45:18;;;;;;;8.80;6.00;;;;;;;21.22;44.48;99807.55;105649;1279;24294;-78
2022/05/11 20:47:48;;;;;;;9.00;5.90;;;;;;;21.19;44.48;99805.54;105854;1276;22613;-78
2022/05/11 20:53:32;;;;;;;8.40;5.50;;;;;;;21.14;44.58;99800.84;105586;1281;23977;-79
2022/05/11 20:55:59;;;;;;;9.60;6.20;;;;;;;21.13;44.57;99801.27;105649;1281;22845;-77
2022/05/11 20:58:27;;;;;;;12.30;5.70;;;;;;;21.11;44.53;99799.41;105687;1279;25376;-79
2022/05/11 21:00:54;;;;;;;10.90;5.90;;;;;;;21.10;44.53;99795.34;105604;1276;24218;-78
2022/05/11 21:03:21;;;;;;;6.00;5.10;;;;;;;21.08;44.68;99793.71;106141;1277;25249;-78
2022/05/11 21:05:49;;;;;;;7.80;5.20;;;;;;;21.05;44.78;99794.80;106067;1277;25641;-79
2022/05/11 21:08:16;;;;;;;13.50;6.00;;;;;;;21.01;44.90;99794.81;105992;1277;23924;-80
2022/05/11 21:10:43;;;;;;;6.50;5.20;;;;;;;20.98;44.89;99793.93;106110;1276;22543;-78
2022/05/11 21:13:11;;;;;;;10.30;5.80;;;;;;;20.95;44.99;99788.58;107614;1271;22783;-77
2022/05/11 21:15:38;;;;;;;9.10;5.00;;;;;;;20.92;44.94;99788.95;108053;1268;25509;-79
2022/05/11 21:18:06;;;;;;;6.20;5.00;;;;;;;20.92;45.15;99792.91;108162;1271;22624;-76
2022/05/11 21:20:34;;;;;;;10.80;5.70;;;;;;;20.91;45.12;99787.19;108342;1271;22573;-79
2022/05/11 21:23:01;;;;;;;13.80;5.80;;;;;;;20.92;45.08;99787.52;108816;1271;22530;-78
2022/05/11 21:25:28;;;;;;;9.30;6.00;;;;;;;20.93;44.94;99785.50;108881;1271;22528;-76
2022/05/11 21:27:58;;;;;;;12.00;5.80;;;;;;;20.94;45.01;99783.67;108724;1270;22542;-78
2022/05/11 21:30:25;;;;;;;9.50;5.60;;;;;;;20.93;45.04;99779.43;109048;1271;22615;-80
2022/05/11 21:32:52;;;;;;;7.70;6.10;;;;;;;20.92;45.08;99781.64;109328;1270;25366;-78
2022/05/11 21:35:20;;;;;;;7.40;5.30;;;;;;;20.90;45.08;99781.18;109375;1271;25403;-78
2022/05/11 21:37:47;;;;;;;8.10;4.90;;;;;;;20.87;45.12;99781.20;108968;1271;22486;-76
2022/05/11 21:40:18;;;;;;;7.50;4.90;;;;;;;20.83;45.24;99774.45;107268;1271;25273;-79
2022/05/11 21:42:46;;;;;;;10.60;5.40;;;;;;;20.79;45.26;99768.60;106721;1276;24256;-77
2022/05/11 21:45:15;;;;;;;8.90;5.50;;;;;;;20.76;45.23;99767.50;106636;1277;26564;-79
2022/05/11 21:47:43;;;;;;;11.50;6.30;;;;;;;20.74;45.36;99771.57;106703;1276;22490;-80
2022/05/11 21:50:14;;;;;;;11.00;5.90;;;;;;;20.72;45.44;99769.73;106504;1276;22542;-79
2022/05/11 21:52:41;;;;;;;9.30;6.70;;;;;;;20.71;45.45;99763.95;106307;1276;26638;-78
2022/05/11 21:55:11;;;;;;;8.40;6.20;;;;;;;20.65;45.50;99764.10;107026;1276;24245;-78
2022/05/11 21:57:49;;;;;;;10.70;5.80;;;;;;;20.63;45.61;99758.50;106504;1276;23926;-79
2022/05/11 22:00:23;;;;;;;10.20;6.50;;;;;;;20.59;45.70;99757.48;106718;1271;22730;-76
2022/05/11 22:02:51;;;;;;;13.90;6.70;;;;;;;20.55;45.79;99758.64;106468;1271;25389;-78
2022/05/11 22:05:19;;;;;;;8.80;5.90;;;;;;;20.51;45.86;99750.05;105922;1276;22552;-81
2022/05/11 22:07:45;;;;;;;9.40;5.90;;;;;;;20.47;45.97;99746.91;106114;1277;22521;-78
2022/05/11 22:10:14;;;;;;;6.20;5.60;;;;;;;20.44;46.02;99744.98;105963;1276;22933;-78
2022/05/11 22:12:41;;;;;;;8.70;5.80;;;;;;;20.39;46.13;99745.59;106095;1276;23488;-78
2022/05/11 22:15:09;;;;;;;7.20;6.30;;;;;;;20.37;46.15;99742.32;106031;1276;22651;-76
2022/05/11 22:17:37;;;;;;;12.00;6.00;;;;;;;20.33;46.24;99740.98;105928;1277;25546;-78
2022/05/11 22:20:06;;;;;;;9.00;6.10;;;;;;;20.28;46.25;99740.89;105747;1277;25432;-77
2022/05/11 22:22:33;;;;;;;7.40;5.20;;;;;;;20.25;46.42;99743.94;105873;1276;25307;-76
2022/05/11 22:25:14;;;;;;;7.90;5.60;;;;;;;20.21;46.51;99743.30;106405;1271;22544;-78
2022/05/11 22:27:43;;;;;;;8.40;5.80;;;;;;;20.17;46.65;99739.04;106314;1271;25349;-77
2022/05/11 22:30:12;;;;;;;8.80;6.10;;;;;;;20.14;46.73;99736.55;106513;1271;25461;-76
2022/05/11 22:32:39;;;;;;;10.10;6.90;;;;;;;20.10;46.88;99731.60;106458;1271;25307;-75
2022/05/11 22:35:07;;;;;;;7.40;5.50;;;;;;;20.09;46.81;99733.84;106243;1271;25346;-76
2022/05/11 22:37:35;;;;;;;6.70;5.50;;;;;;;20.08;46.96;99729.27;106433;1271;23012;-74
2022/05/11 22:40:03;;;;;;;6.70;5.10;;;;;;;20.06;46.97;99725.56;106447;1271;24682;-74
2022/05/11 22:42:30;;;;;;;6.80;5.70;;;;;;;20.04;47.05;99720.30;106473;1271;22549;-75
2022/05/11 22:44:57;;;;;;;7.80;5.70;;;;;;;20.00;47.14;99719.30;106515;1271;25461;-78
2022/05/11 22:47:24;;;;;;;11.20;6.20;;;;;;;19.98;47.19;99715.69;106334;1271;22488;-75
2022/05/11 22:49:52;;;;;;;6.70;6.10;;;;;;;19.94;47.23;99710.69;106383;1271;22544;-75
2022/05/11 22:52:21;;;;;;;9.40;6.40;;;;;;;19.90;47.39;99710.05;106389;1271;23964;-77
2022/05/11 22:54:48;;;;;;;6.60;6.10;;;;;;;19.84;47.50;99710.41;106475;1271;24135;-76
2022/05/11 22:57:15;;;;;;;7.00;5.70;;;;;;;19.79;47.57;99710.31;106206;1271;22691;-80
2022/05/11 22:59:42;;;;;;;9.60;6.20;;;;;;;19.75;47.73;99707.69;106954;1271;25159;-79
2022/05/11 23:02:10;;;;;;;10.00;5.60;;;;;;;19.72;47.83;99701.43;106479;1271;22545;-81
2022/05/11 23:04:37;;;;;;;6.10;5.60;;;;;;;19.70;47.86;99698.70;106538;1271;24402;-80
2022/05/11 23:07:06;;;;;;;7.30;5.90;;;;;;;19.68;48.03;99699.37;106364;1271;22525;-80
2022/05/11 23:09:34;;;;;;;8.40;6.20;;;;;;;19.64;48.13;99694.58;106412;1271;22568;-81
2022/05/11 23:12:01;;;;;;;7.80;5.80;;;;;;;19.60;48.21;99695.35;106187;1277;22911;-80
2022/05/11 23:14:28;;;;;;;6.80;6.00;;;;;;;19.57;48.39;99690.33;106160;1277;22551;-80
2022/05/11 23:16:55;;;;;;;6.20;5.70;;;;;;;19.55;48.50;99691.16;106466;1279;22480;-78
2022/05/11 23:19:22;;;;;;;6.40;5.20;;;;;;;19.51;48.65;99688.69;107390;1280;22861;-77
2022/05/11 23:21:49;;;;;;;16.00;6.10;;;;;;;19.49;48.59;99685.10;107839;1280;22613;-78
2022/05/11 23:24:19;;;;;;;8.60;5.70;;;;;;;19.48;48.68;99677.48;108164;1278;25408;-78
2022/05/11 23:26:47;;;;;;;7.10;6.00;;;;;;;19.46;48.81;99675.80;108190;1280;22563;-75
2022/05/11 23:29:15;;;;;;;5.90;5.20;;;;;;;19.46;48.84;99680.96;108067;1280;23093;-76
2022/05/11 23:31:42;;;;;;;10.60;6.30;;;;;;;19.45;48.86;99673.91;108220;1276;25486;-75
2022/05/11 23:34:09;;;;;;;9.50;5.80;;;;;;;19.45;48.91;99667.11;107177;1275;22547;-77
2022/05/11 23:36:35;;;;;;;6.90;6.10;;;;;;;19.45;48.96;99669.97;107080;1271;24457;-78
2022/05/11 23:39:03;;;;;;;12.20;6.30;;;;;;;19.44;48.99;99670.39;106586;1271;22717;-79
2022/05/11 23:41:31;;;;;;;9.90;6.20;;;;;;;19.45;48.99;99668.72;106480;1271;24030;-81
2022/05/11 23:43:58;;;;;;;15.20;5.80;;;;;;;19.45;49.01;99667.13;106326;1271;22543;-80
2022/05/11 23:46:25;;;;;;;7.00;5.60;;;;;;;19.44;48.98;99662.88;106680;1271;22541;-79
2022/05/11 23:48:52;;;;;;;8.10;6.70;;;;;;;19.40;49.13;99660.45;106530;1271;23844;-79
2022/05/11 23:51:19;;;;;;;6.30;5.40;;;;;;;19.39;49.14;99658.16;106057;1274;24005;-75
2022/05/11 23:53:46;;;;;;;8.50;6.00;;;;;;;19.36;49.29;99656.89;106038;1274;22567;-81
2022/05/11 23:56:12;;;;;;;7.70;6.60;;;;;;;19.35;49.30;99653.92;106045;1274;24208;-80
2022/05/11 23:58:39;;;;;;;6.30;5.70;;;;;;;19.32;49.32;99651.96;106126;1274;22532;-80
